createdAt,value
2022-12-03T00:00:40.625Z,100044.50
2022-12-03T00:01:42.036Z,100045.31
2022-12-03T00:02:43.535Z,100043.91
2022-12-03T00:03:45.065Z,100048.31
2022-12-03T00:04:46.496Z,100047.56
2022-12-03T00:05:49.081Z,100043.16
2022-12-03T00:06:50.739Z,100045.75
2022-12-03T00:07:52.160Z,100053.41
2022-12-03T00:08:53.589Z,100042.84
2022-12-03T00:09:54.969Z,100042.84
2022-12-03T00:10:56.343Z,100047.91
2022-12-03T00:11:57.752Z,100048.06
2022-12-03T00:12:59.121Z,100044.69
2022-12-03T00:14:00.623Z,100051.56
2022-12-03T00:15:02.006Z,100047.16
2022-12-03T00:16:03.625Z,100035.22
2022-12-03T00:17:05.042Z,100039.38
2022-12-03T00:18:06.483Z,100037.78
2022-12-03T00:19:07.889Z,100035.38
2022-12-03T00:20:09.728Z,100041.59
2022-12-03T00:21:11.098Z,100038.13
2022-12-03T00:22:12.912Z,100039.94
2022-12-03T00:23:14.381Z,100045.16
2022-12-03T00:24:15.733Z,100040.06
2022-12-03T00:25:17.424Z,100043.44
2022-12-03T00:26:18.803Z,100041.75
2022-12-03T00:27:20.166Z,100043.53
2022-12-03T00:28:21.553Z,100040.22
2022-12-03T00:29:22.928Z,100042.56
2022-12-03T00:30:24.325Z,100043.53
2022-12-03T00:31:25.915Z,100040.09
2022-12-03T00:32:27.378Z,100042.66
2022-12-03T00:33:28.749Z,100035.53
2022-12-03T00:34:30.124Z,100033.81
2022-12-03T00:35:31.497Z,100037.31
2022-12-03T00:36:32.842Z,100035.50
2022-12-03T00:37:34.225Z,100039.75
2022-12-03T00:38:35.604Z,100040.69
2022-12-03T00:39:37.015Z,100039.06
2022-12-03T00:40:38.586Z,100043.31
2022-12-03T00:41:39.967Z,100034.72
2022-12-03T00:42:41.312Z,100033.22
2022-12-03T00:43:42.677Z,100035.84
2022-12-03T00:44:44.029Z,100035.03
2022-12-03T00:45:45.382Z,100027.03
2022-12-03T00:46:46.773Z,100035.81
2022-12-03T00:47:48.178Z,100032.34
2022-12-03T00:48:49.529Z,100031.38
2022-12-03T00:49:50.920Z,100030.63
2022-12-03T00:50:52.407Z,100030.63
2022-12-03T00:51:53.784Z,100030.59
2022-12-03T00:52:55.133Z,100028.81
2022-12-03T00:53:56.468Z,100028.03
2022-12-03T00:54:57.861Z,100023.78
2022-12-03T00:55:59.214Z,100022.84
2022-12-03T00:57:00.575Z,100020.22
2022-12-03T00:58:01.939Z,100021.75
2022-12-03T00:59:03.356Z,100023.59
2022-12-03T01:00:05.673Z,100027.09
2022-12-03T01:01:07.033Z,100022.75
2022-12-03T01:02:08.552Z,100031.22
2022-12-03T01:03:10.034Z,100036.41
2022-12-03T01:04:11.415Z,100026.88
2022-12-03T01:05:12.902Z,100028.66
2022-12-03T01:06:14.273Z,100027.09
2022-12-03T01:07:15.640Z,100028.66
2022-12-03T01:08:17.093Z,100023.44
2022-12-03T01:09:18.546Z,100025.06
2022-12-03T01:10:20.018Z,100025.13
2022-12-03T01:11:21.426Z,100024.19
2022-12-03T01:12:22.857Z,100021.50
2022-12-03T01:13:24.516Z,100017.47
2022-12-03T01:14:25.969Z,100018.28
2022-12-03T01:15:27.345Z,100019.88
2022-12-03T01:16:28.771Z,100024.28
2022-12-03T01:17:30.212Z,100020.94
2022-12-03T01:18:31.568Z,100018.53
2022-12-03T01:19:33.298Z,100020.16
2022-12-03T01:20:34.654Z,100020.09
2022-12-03T01:21:36.653Z,100025.28
2022-12-03T01:22:38.056Z,100020.00
2022-12-03T01:23:39.405Z,100028.47
2022-12-03T01:24:40.750Z,100023.94
2022-12-03T01:25:42.096Z,100029.81
2022-12-03T01:26:43.481Z,100034.94
2022-12-03T01:27:44.852Z,100028.81
2022-12-03T01:28:46.195Z,100022.75
2022-12-03T01:29:47.593Z,100026.88
2022-12-03T01:30:49.026Z,100029.47
2022-12-03T01:31:50.681Z,100030.50
2022-12-03T01:32:52.077Z,100033.88
2022-12-03T01:33:53.462Z,100028.94
2022-12-03T01:34:55.745Z,100030.88
2022-12-03T01:35:57.467Z,100034.38
2022-12-03T01:36:58.793Z,100030.00
2022-12-03T01:38:00.128Z,100032.69
2022-12-03T01:39:02.437Z,100030.09
2022-12-03T01:40:04.683Z,100030.97
2022-12-03T01:41:11.339Z,100030.81
2022-12-03T01:42:45.286Z,100026.44
2022-12-03T01:43:47.145Z,100023.94
2022-12-03T01:44:50.632Z,100026.53
2022-12-03T01:45:52.298Z,100025.69
2022-12-03T01:46:54.783Z,100029.13
2022-12-03T01:47:56.202Z,100028.22
2022-12-03T01:48:57.541Z,100024.56
2022-12-03T01:50:17.551Z,100026.38
2022-12-03T01:51:19.372Z,100022.72
2022-12-03T01:52:26.714Z,100022.59
2022-12-03T01:53:28.106Z,100020.91
2022-12-03T01:54:36.996Z,100019.22
2022-12-03T01:55:38.351Z,100014.25
2022-12-03T01:56:39.730Z,100019.28
2022-12-03T01:57:43.994Z,100017.41
2022-12-03T01:58:46.136Z,100020.78
2022-12-03T01:59:47.741Z,100017.38
2022-12-03T02:00:49.116Z,100019.19
2022-12-03T02:01:50.526Z,100020.97
2022-12-03T02:02:53.577Z,100023.63
2022-12-03T02:03:54.994Z,100019.22
2022-12-03T02:04:57.034Z,100019.19
2022-12-03T02:06:00.083Z,100015.72
2022-12-03T02:07:21.080Z,100014.94
2022-12-03T02:08:37.550Z,100008.72
2022-12-03T02:09:38.937Z,100020.75
2022-12-03T02:10:40.296Z,100019.84
2022-12-03T02:11:45.533Z,100011.94
2022-12-03T02:12:46.837Z,100021.41
2022-12-03T02:13:51.487Z,100014.50
2022-12-03T02:14:53.480Z,100017.88
2022-12-03T02:15:55.313Z,100021.13
2022-12-03T02:16:56.724Z,100016.81
2022-12-03T02:17:58.129Z,100018.50
2022-12-03T02:18:59.547Z,100013.25
2022-12-03T02:20:02.049Z,100020.13
2022-12-03T02:21:13.005Z,100023.50
2022-12-03T02:22:26.657Z,100025.25
2022-12-03T02:23:38.513Z,100026.88
2022-12-03T02:24:46.191Z,100027.75
2022-12-03T02:25:47.643Z,100025.94
2022-12-03T02:26:49.047Z,100021.56
2022-12-03T02:27:50.827Z,100022.66
2022-12-03T02:28:52.252Z,100033.16
2022-12-03T02:29:53.720Z,100031.41
2022-12-03T02:30:55.141Z,100033.16
2022-12-03T02:31:56.630Z,100027.06
2022-12-03T02:32:58.478Z,100029.59
2022-12-03T02:33:59.881Z,100026.94
2022-12-03T02:35:01.304Z,100033.03
2022-12-03T02:36:04.096Z,100026.16
2022-12-03T02:37:07.446Z,100029.59
2022-12-03T02:38:25.987Z,100024.28
2022-12-03T02:39:27.584Z,100027.66
2022-12-03T02:40:31.455Z,100025.88
2022-12-03T02:41:32.889Z,100019.06
2022-12-03T02:42:34.456Z,100030.28
2022-12-03T02:43:36.203Z,100028.53
2022-12-03T02:44:37.863Z,100028.41
2022-12-03T02:45:41.916Z,100025.78
2022-12-03T02:46:43.416Z,100025.00
2022-12-03T02:48:05.056Z,100026.09
2022-12-03T02:49:06.682Z,100025.38
2022-12-03T02:50:09.376Z,100029.59
2022-12-03T02:51:10.877Z,100024.28
2022-12-03T02:52:12.256Z,100025.94
2022-12-03T02:53:15.295Z,100021.66
2022-12-03T02:54:16.717Z,100024.28
2022-12-03T02:55:18.518Z,100025.03
2022-12-03T02:56:22.701Z,100026.75
2022-12-03T02:57:24.181Z,100025.94
2022-12-03T02:58:26.737Z,100020.66
2022-12-03T02:59:28.093Z,100023.38
2022-12-03T03:00:29.717Z,100024.16
2022-12-03T03:01:31.394Z,100028.53
2022-12-03T03:02:33.141Z,100020.75
2022-12-03T03:03:35.519Z,100024.13
2022-12-03T03:04:37.256Z,100024.91
2022-12-03T03:05:39.757Z,100023.97
2022-12-03T03:06:41.180Z,100020.50
2022-12-03T03:07:42.654Z,100025.78
2022-12-03T03:08:44.195Z,100022.44
2022-12-03T03:09:45.606Z,100019.88
2022-12-03T03:10:47.261Z,100015.59
2022-12-03T03:11:48.681Z,100015.59
2022-12-03T03:12:51.375Z,100017.38
2022-12-03T03:13:52.828Z,100019.97
2022-12-03T03:14:54.577Z,100019.06
2022-12-03T03:15:56.351Z,100019.88
2022-12-03T03:16:57.843Z,100014.69
2022-12-03T03:17:59.300Z,100019.09
2022-12-03T03:19:01.127Z,100017.41
2022-12-03T03:20:03.178Z,100013.19
2022-12-03T03:21:04.723Z,100027.78
2022-12-03T03:22:06.129Z,100027.78
2022-12-03T03:23:20.866Z,100024.28
2022-12-03T03:24:22.529Z,100018.31
2022-12-03T03:25:23.906Z,100011.59
2022-12-03T03:26:25.834Z,100016.00
2022-12-03T03:27:27.672Z,100011.66
2022-12-03T03:28:29.991Z,100021.38
2022-12-03T03:29:32.077Z,100020.00
2022-12-03T03:30:35.219Z,100018.44
2022-12-03T03:31:36.886Z,100015.16
2022-12-03T03:32:38.937Z,100019.34
2022-12-03T03:33:41.650Z,100025.19
2022-12-03T03:34:43.112Z,100019.28
2022-12-03T03:35:45.092Z,100017.56
2022-12-03T03:36:46.633Z,100018.47
2022-12-03T03:37:48.049Z,100016.75
2022-12-03T03:38:49.543Z,100021.97
2022-12-03T03:39:51.077Z,100015.31
2022-12-03T03:40:53.096Z,100016.97
2022-12-03T03:41:54.485Z,100023.81
2022-12-03T03:42:56.121Z,100016.84
2022-12-03T03:43:58.196Z,100016.06
2022-12-03T03:44:59.708Z,100018.59
2022-12-03T03:46:01.774Z,100011.56
2022-12-03T03:47:03.248Z,100011.44
2022-12-03T03:48:04.870Z,100007.94
2022-12-03T03:49:06.734Z,100005.31
2022-12-03T03:50:10.286Z,100009.59
2022-12-03T03:51:12.728Z,100006.22
2022-12-03T03:52:14.070Z,100007.38
2022-12-03T03:53:16.400Z,100007.44
2022-12-03T03:54:17.932Z,100004.69
2022-12-03T03:55:19.367Z,100014.94
2022-12-03T03:56:21.219Z,100011.50
2022-12-03T03:57:22.782Z,100011.66
2022-12-03T03:58:24.190Z,100011.78
2022-12-03T03:59:25.584Z,100007.47
2022-12-03T04:00:27.925Z,100010.88
2022-12-03T04:01:29.677Z,100009.97
2022-12-03T04:02:31.883Z,100007.47
2022-12-03T04:03:34.125Z,100007.44
2022-12-03T04:04:37.406Z,100003.88
2022-12-03T04:05:39.269Z,100003.78
2022-12-03T04:06:41.244Z,100002.81
2022-12-03T04:07:42.644Z,100004.56
2022-12-03T04:08:44.068Z,100007.09
2022-12-03T04:09:45.425Z,100004.56
2022-12-03T04:10:46.910Z,100003.88
2022-12-03T04:11:48.346Z,100001.28
2022-12-03T04:12:49.716Z,100007.09
2022-12-03T04:13:51.066Z,100013.91
2022-12-03T04:14:52.718Z,100015.53
2022-12-03T04:15:54.357Z,100018.91
2022-12-03T04:16:55.753Z,100009.34
2022-12-03T04:17:57.210Z,100011.94
2022-12-03T04:18:58.577Z,100009.44
2022-12-03T04:19:59.955Z,100021.50
2022-12-03T04:21:01.341Z,100013.75
2022-12-03T04:22:02.714Z,100015.56
2022-12-03T04:23:04.401Z,100016.63
2022-12-03T04:24:06.609Z,100013.88
2022-12-03T04:25:09.370Z,100007.78
2022-12-03T04:26:10.710Z,100012.84
2022-12-03T04:27:12.049Z,100011.13
2022-12-03T04:28:13.409Z,100011.28
2022-12-03T04:29:14.848Z,100010.59
2022-12-03T04:30:16.273Z,100011.41
2022-12-03T04:31:17.699Z,100008.81
2022-12-03T04:32:19.808Z,100009.63
2022-12-03T04:33:21.271Z,100011.41
2022-12-03T04:34:23.082Z,100008.72
2022-12-03T04:35:24.481Z,100014.03
2022-12-03T04:36:25.901Z,100012.38
2022-12-03T04:37:27.268Z,100006.59
2022-12-03T04:38:28.669Z,100009.13
2022-12-03T04:39:30.643Z,100004.63
2022-12-03T04:40:32.025Z,100007.94
2022-12-03T04:41:33.425Z,100004.56
2022-12-03T04:42:34.794Z,100004.44
2022-12-03T04:43:36.196Z,100010.41
2022-12-03T04:44:37.769Z,100002.72
2022-12-03T04:45:39.125Z,100002.63
2022-12-03T04:46:40.567Z,100006.09
2022-12-03T04:47:41.902Z,100003.53
2022-12-03T04:48:43.277Z,100004.50
2022-12-03T04:49:47.445Z,100004.56
2022-12-03T04:50:48.871Z,100002.81
2022-12-03T04:51:50.207Z,100005.34
2022-12-03T04:52:51.537Z,100000.22
2022-12-03T04:53:52.922Z,99997.63
2022-12-03T04:54:54.500Z,99994.25
2022-12-03T04:55:56.034Z,99996.84
2022-12-03T04:56:57.422Z,99990.84
2022-12-03T04:57:58.832Z,99990.81
2022-12-03T04:59:00.218Z,99990.66
2022-12-03T05:00:01.792Z,99993.28
2022-12-03T05:01:03.252Z,99989.97
2022-12-03T05:02:05.545Z,99991.72
2022-12-03T05:03:07.339Z,99991.09
2022-12-03T05:04:08.769Z,99992.78
2022-12-03T05:05:10.172Z,99984.16
2022-12-03T05:06:11.527Z,99981.50
2022-12-03T05:07:12.894Z,99987.66
2022-12-03T05:08:14.278Z,99985.97
2022-12-03T05:09:15.837Z,99991.13
2022-12-03T05:10:17.221Z,99988.50
2022-12-03T05:11:18.660Z,99987.47
2022-12-03T05:12:20.006Z,99994.97
2022-12-03T05:13:21.387Z,99991.34
2022-12-03T05:14:22.745Z,99992.22
2022-12-03T05:15:24.125Z,99995.63
2022-12-03T05:16:25.570Z,99999.84
2022-12-03T05:17:27.021Z,100000.56
2022-12-03T05:18:28.421Z,99995.44
2022-12-03T05:19:29.883Z,99993.66
2022-12-03T05:20:31.417Z,99992.97
2022-12-03T05:21:32.784Z,99993.13
2022-12-03T05:22:34.137Z,99988.72
2022-12-03T05:23:35.558Z,99993.94
2022-12-03T05:24:36.939Z,99992.25
2022-12-03T05:25:38.603Z,99991.31
2022-12-03T05:26:39.971Z,99991.34
2022-12-03T05:27:41.315Z,99990.66
2022-12-03T05:28:42.707Z,99991.47
2022-12-03T05:29:44.059Z,99995.25
2022-12-03T05:30:45.646Z,99995.03
2022-12-03T05:31:47.067Z,99990.75
2022-12-03T05:32:48.460Z,99994.97
2022-12-03T05:33:49.867Z,99994.03
2022-12-03T05:34:51.538Z,99991.28
2022-12-03T05:35:53.167Z,99991.19
2022-12-03T05:36:54.533Z,99998.94
2022-12-03T05:37:55.877Z,99994.75
2022-12-03T05:38:57.250Z,100000.81
2022-12-03T05:39:58.633Z,99999.06
2022-12-03T05:41:00.253Z,99992.88
2022-12-03T05:42:01.647Z,99992.84
2022-12-03T05:43:03.003Z,99993.00
2022-12-03T05:44:04.369Z,99997.38
2022-12-03T05:45:06.025Z,99990.41
2022-12-03T05:46:07.421Z,99995.63
2022-12-03T05:47:08.832Z,99994.84
2022-12-03T05:48:11.465Z,99996.72
2022-12-03T05:49:12.845Z,99993.13
2022-12-03T05:50:14.707Z,99995.56
2022-12-03T05:51:16.085Z,99996.22
2022-12-03T05:52:17.429Z,99991.03
2022-12-03T05:53:18.796Z,99995.25
2022-12-03T05:54:20.120Z,99999.50
2022-12-03T05:55:21.630Z,99996.81
2022-12-03T05:56:22.978Z,99988.09
2022-12-03T05:57:24.386Z,99989.03
2022-12-03T05:58:25.772Z,99992.59
2022-12-03T05:59:27.181Z,99990.00
2022-12-03T06:00:30.509Z,99994.41
2022-12-03T06:01:31.897Z,99995.31
2022-12-03T06:02:33.477Z,99985.63
2022-12-03T06:03:35.019Z,99990.81
2022-12-03T06:04:36.490Z,99988.22
2022-12-03T06:05:37.861Z,99983.94
2022-12-03T06:06:39.231Z,99994.22
2022-12-03T06:07:40.989Z,99994.91
2022-12-03T06:08:42.417Z,99992.34
2022-12-03T06:09:43.812Z,99996.66
2022-12-03T06:10:45.177Z,100000.13
2022-12-03T06:11:46.501Z,100001.00
2022-12-03T06:12:47.882Z,100000.03
2022-12-03T06:13:49.302Z,100003.53
2022-12-03T06:14:50.808Z,100005.19
2022-12-03T06:15:52.315Z,100007.81
2022-12-03T06:16:53.707Z,100001.00
2022-12-03T06:17:55.041Z,100005.31
2022-12-03T06:18:56.421Z,100001.00
2022-12-03T06:19:57.797Z,100006.13
2022-12-03T06:20:59.193Z,100008.59
2022-12-03T06:22:00.547Z,100012.00
2022-12-03T06:23:01.894Z,100017.97
2022-12-03T06:24:03.324Z,100006.00
2022-12-03T06:25:07.146Z,100011.09
2022-12-03T06:26:08.800Z,100015.31
2022-12-03T06:27:10.221Z,100016.16
2022-12-03T06:28:11.558Z,100015.25
2022-12-03T06:29:12.893Z,100021.38
2022-12-03T06:30:14.381Z,100017.84
2022-12-03T06:31:15.798Z,100016.94
2022-12-03T06:32:17.214Z,100020.47
2022-12-03T06:33:18.594Z,100023.06
2022-12-03T06:34:19.933Z,100021.19
2022-12-03T06:35:21.300Z,100014.31
2022-12-03T06:36:23.690Z,100020.34
2022-12-03T06:37:25.101Z,100022.03
2022-12-03T06:38:26.495Z,100024.06
2022-12-03T06:39:27.887Z,100016.47
2022-12-03T06:40:29.256Z,100014.78
2022-12-03T06:41:30.608Z,100012.09
2022-12-03T06:42:31.967Z,100010.28
2022-12-03T06:43:33.336Z,100012.09
2022-12-03T06:44:34.691Z,100013.78
2022-12-03T06:45:36.053Z,100016.28
2022-12-03T06:46:37.512Z,100008.50
2022-12-03T06:47:38.925Z,100015.56
2022-12-03T06:48:40.285Z,100010.50
2022-12-03T06:49:41.619Z,100010.41
2022-12-03T06:50:42.973Z,100007.00
2022-12-03T06:51:44.737Z,100012.09
2022-12-03T06:52:46.099Z,100012.97
2022-12-03T06:53:47.454Z,100012.09
2022-12-03T06:54:48.827Z,100011.31
2022-12-03T06:55:50.166Z,100013.09
2022-12-03T06:56:51.525Z,100003.78
2022-12-03T06:57:52.879Z,100004.69
2022-12-03T06:58:54.280Z,100002.31
2022-12-03T06:59:55.978Z,100003.94
2022-12-03T07:00:57.603Z,100000.66
2022-12-03T07:01:59.025Z,100006.75
2022-12-03T07:03:00.438Z,100000.94
2022-12-03T07:04:01.841Z,100009.75
2022-12-03T07:05:03.775Z,100003.81
2022-12-03T07:06:06.053Z,100006.31
2022-12-03T07:07:07.445Z,100007.81
2022-12-03T07:08:08.892Z,100012.03
2022-12-03T07:09:10.397Z,100002.47
2022-12-03T07:10:11.887Z,100004.25
2022-12-03T07:11:13.290Z,100006.84
2022-12-03T07:12:14.690Z,100004.13
2022-12-03T07:13:16.032Z,99998.06
2022-12-03T07:14:17.421Z,100004.94
2022-12-03T07:15:18.823Z,100010.88
2022-12-03T07:16:20.284Z,100004.72
2022-12-03T07:17:21.687Z,100014.16
2022-12-03T07:18:23.077Z,100006.25
2022-12-03T07:19:30.673Z,100012.63
2022-12-03T07:20:33.619Z,100016.06
2022-12-03T07:21:34.987Z,100010.09
2022-12-03T07:22:36.412Z,100013.47
2022-12-03T07:23:37.774Z,100013.31
2022-12-03T07:24:39.123Z,100007.22
2022-12-03T07:25:40.558Z,99998.41
2022-12-03T07:26:41.937Z,100003.53
2022-12-03T07:27:43.311Z,100000.28
2022-12-03T07:28:44.645Z,100001.00
2022-12-03T07:29:46.020Z,99999.13
2022-12-03T07:30:47.385Z,99999.03
2022-12-03T07:31:48.872Z,99991.97
2022-12-03T07:32:50.289Z,99991.13
2022-12-03T07:33:51.639Z,99998.00
2022-12-03T07:34:53.281Z,99994.47
2022-12-03T07:35:54.817Z,99993.56
2022-12-03T07:36:56.190Z,99991.75
2022-12-03T07:37:57.572Z,99995.28
2022-12-03T07:38:58.933Z,99996.06
2022-12-03T07:40:00.312Z,99996.19
2022-12-03T07:41:01.723Z,99997.88
2022-12-03T07:42:03.142Z,100003.06
2022-12-03T07:43:04.548Z,100004.84
2022-12-03T07:44:12.530Z,100005.53
2022-12-03T07:45:15.933Z,100003.75
2022-12-03T07:46:17.385Z,99999.41
2022-12-03T07:47:18.760Z,99998.44
2022-12-03T07:48:20.114Z,99997.53
2022-12-03T07:49:21.503Z,99998.50
2022-12-03T07:50:23.020Z,99995.00
2022-12-03T07:51:29.020Z,99995.00
2022-12-03T07:52:33.254Z,99997.41
2022-12-03T07:53:34.634Z,99996.50
2022-12-03T07:54:35.985Z,100002.47
2022-12-03T07:55:37.376Z,99999.88
2022-12-03T07:56:38.749Z,100001.53
2022-12-03T07:57:40.115Z,99998.88
2022-12-03T07:58:41.505Z,99998.00
2022-12-03T07:59:42.884Z,99997.97
2022-12-03T08:00:44.258Z,100002.13
2022-12-03T08:01:45.742Z,99994.41
2022-12-03T08:02:47.250Z,100003.94
2022-12-03T08:03:48.650Z,100001.34
2022-12-03T08:04:50.046Z,100003.81
2022-12-03T08:05:51.447Z,100002.00
2022-12-03T08:06:52.804Z,100005.41
2022-12-03T08:07:54.239Z,99997.53
2022-12-03T08:08:56.517Z,100004.50
2022-12-03T08:09:57.920Z,99997.78
2022-12-03T08:11:00.353Z,100002.91
2022-12-03T08:12:06.246Z,99995.88
2022-12-03T08:13:11.441Z,100005.41
2022-12-03T08:14:13.729Z,99994.09
2022-12-03T08:15:16.729Z,99994.41
2022-12-03T08:16:19.401Z,99988.72
2022-12-03T08:17:20.884Z,99994.69
2022-12-03T08:18:24.230Z,99989.44
2022-12-03T08:19:26.750Z,99988.50
2022-12-03T08:20:29.217Z,99986.84
2022-12-03T08:21:34.544Z,99986.06
2022-12-03T08:22:35.888Z,99992.78
2022-12-03T08:23:37.250Z,99991.19
2022-12-03T08:24:38.722Z,99984.31
2022-12-03T08:25:40.247Z,99987.75
2022-12-03T08:26:42.350Z,99984.44
2022-12-03T08:27:43.717Z,99984.50
2022-12-03T08:28:45.102Z,99996.59
2022-12-03T08:29:46.436Z,99995.16
2022-12-03T08:31:01.188Z,99996.97
2022-12-03T08:32:02.962Z,99995.13
2022-12-03T08:33:20.334Z,99997.53
2022-12-03T08:34:23.162Z,100000.13
2022-12-03T08:35:27.177Z,100000.00
2022-12-03T08:36:33.041Z,99999.84
2022-12-03T08:37:35.702Z,99994.63
2022-12-03T08:38:37.098Z,99990.53
2022-12-03T08:39:44.299Z,99997.28
2022-12-03T08:40:46.240Z,100002.38
2022-12-03T08:43:24.736Z,100000.88
2022-12-03T08:44:31.263Z,100006.06
2022-12-03T08:45:34.412Z,100007.63
2022-12-03T08:46:35.824Z,100007.41
2022-12-03T08:49:02.760Z,100005.75
2022-12-03T08:50:24.048Z,100007.47
2022-12-03T08:51:25.777Z,100006.31
2022-12-03T08:52:31.024Z,100011.72
2022-12-03T08:53:34.129Z,100006.00
2022-12-03T08:54:35.722Z,100005.97
2022-12-03T08:55:38.293Z,100004.00
2022-12-03T08:56:41.363Z,100002.31
2022-12-03T08:57:42.999Z,100009.75
2022-12-03T09:00:22.172Z,100010.03
2022-12-03T09:01:31.398Z,100006.81
2022-12-03T09:02:34.158Z,100007.47
2022-12-03T09:03:35.811Z,100004.63
2022-12-03T09:04:46.504Z,100010.38
2022-12-03T09:05:47.943Z,100005.06
2022-12-03T09:06:49.507Z,100007.53
2022-12-03T09:07:51.017Z,99998.69
2022-12-03T09:08:52.462Z,100005.53
2022-12-03T09:09:53.851Z,100004.44
2022-12-03T09:10:55.305Z,100007.59
2022-12-03T09:11:56.799Z,100002.25
2022-12-03T09:12:58.171Z,100004.59
2022-12-03T09:13:59.531Z,100000.19
2022-12-03T09:15:00.950Z,100000.13
2022-12-03T09:16:02.322Z,99999.28
2022-12-03T09:17:03.741Z,100002.03
2022-12-03T09:18:05.200Z,100012.66
2022-12-03T09:19:06.573Z,100009.28
2022-12-03T09:20:08.221Z,100011.03
2022-12-03T09:21:09.584Z,100008.25
2022-12-03T09:22:10.957Z,99999.75
2022-12-03T09:23:12.320Z,100003.66
2022-12-03T09:24:13.690Z,100000.50
2022-12-03T09:25:15.087Z,100002.47
2022-12-03T09:26:16.465Z,99999.13
2022-12-03T09:27:17.810Z,99992.50
2022-12-03T09:28:19.172Z,99997.69
2022-12-03T09:29:20.541Z,99999.38
2022-12-03T09:30:22.056Z,99999.25
2022-12-03T09:31:23.479Z,100011.00
2022-12-03T09:32:24.915Z,100001.19
2022-12-03T09:33:26.388Z,100001.81
2022-12-03T09:34:27.791Z,100001.84
2022-12-03T09:35:29.162Z,100005.31
2022-12-03T09:36:30.505Z,99996.78
2022-12-03T09:37:31.851Z,100001.06
2022-12-03T09:38:33.233Z,99992.22
2022-12-03T09:39:34.705Z,99999.66
2022-12-03T09:40:36.120Z,99999.41
2022-12-03T09:41:37.808Z,99992.50
2022-12-03T09:42:39.453Z,99994.25
2022-12-03T09:44:03.447Z,100003.41
2022-12-03T09:45:03.825Z,100002.34
2022-12-03T09:46:05.377Z,99985.06
2022-12-03T09:47:07.487Z,99993.63
2022-12-03T09:48:08.853Z,99997.84
2022-12-03T09:49:15.752Z,99986.97
2022-12-03T09:50:19.957Z,99991.94
2022-12-03T09:51:21.524Z,99992.59
2022-12-03T09:52:25.476Z,99990.00
2022-12-03T09:53:27.615Z,99996.94
2022-12-03T09:54:29.927Z,99990.91
2022-12-03T09:55:31.492Z,99991.63
2022-12-03T09:56:35.756Z,99993.13
2022-12-03T09:57:37.104Z,99992.94
2022-12-03T09:58:38.489Z,99992.66
2022-12-03T09:59:39.892Z,99990.78
2022-12-03T10:00:42.112Z,99988.28
2022-12-03T10:01:44.010Z,99984.69
2022-12-03T10:02:46.592Z,99987.16
2022-12-03T10:03:49.948Z,99980.94
2022-12-03T10:04:52.605Z,99987.81
2022-12-03T10:05:54.703Z,99981.63
2022-12-03T10:06:57.288Z,99984.72
2022-12-03T10:08:04.218Z,99981.28
2022-12-03T10:09:05.624Z,99974.91
2022-12-03T10:10:07.717Z,99983.34
2022-12-03T10:11:09.116Z,99985.22
2022-12-03T10:12:13.831Z,99979.25
2022-12-03T10:13:25.326Z,99974.13
2022-12-03T10:14:27.461Z,99973.31
2022-12-03T10:15:29.148Z,99970.69
2022-12-03T10:16:30.623Z,99972.50
2022-12-03T10:17:32.125Z,99974.41
2022-12-03T10:18:38.221Z,99972.53
2022-12-03T10:19:42.909Z,99962.75
2022-12-03T10:20:44.348Z,99959.16
2022-12-03T10:21:45.739Z,99950.56
2022-12-03T10:22:47.382Z,99954.75
2022-12-03T10:23:54.896Z,99952.19
2022-12-03T10:25:14.034Z,99960.59
2022-12-03T10:26:15.615Z,99961.50
2022-12-03T10:28:43.948Z,99965.78
2022-12-03T10:29:53.101Z,99957.84
2022-12-03T10:30:55.338Z,99964.50
2022-12-03T10:32:01.340Z,99965.22
2022-12-03T10:33:15.702Z,99961.53
2022-12-03T10:34:27.180Z,99959.78
2022-12-03T10:35:38.657Z,99961.41
2022-12-03T10:36:40.055Z,99952.66
2022-12-03T10:37:56.362Z,99956.94
2022-12-03T10:39:08.643Z,99962.06
2022-12-03T10:40:12.824Z,99953.34
2022-12-03T10:41:21.704Z,99954.25
2022-12-03T10:42:23.726Z,99953.34
2022-12-03T10:43:25.745Z,99952.72
2022-12-03T10:44:27.118Z,99951.03
2022-12-03T10:45:28.501Z,99953.81
2022-12-03T10:46:29.958Z,99954.91
2022-12-03T10:47:31.635Z,99951.88
2022-12-03T10:48:34.274Z,99958.00
2022-12-03T10:49:35.831Z,99946.19
2022-12-03T10:50:37.426Z,99959.97
2022-12-03T10:51:39.103Z,99958.06
2022-12-03T10:52:40.489Z,99962.84
2022-12-03T10:53:42.080Z,99953.22
2022-12-03T10:54:43.553Z,99955.66
2022-12-03T10:55:47.811Z,99955.56
2022-12-03T10:56:50.356Z,99950.19
2022-12-03T10:57:51.701Z,99938.38
2022-12-03T10:58:53.376Z,99941.81
2022-12-03T10:59:54.847Z,99942.53
2022-12-03T11:00:58.528Z,99941.59
2022-12-03T11:03:21.521Z,99935.56
2022-12-03T11:04:25.806Z,99943.97
2022-12-03T11:05:33.160Z,99940.69
2022-12-03T11:06:37.191Z,99945.09
2022-12-03T11:07:41.796Z,99948.63
2022-12-03T11:08:44.637Z,99946.09
2022-12-03T11:09:47.940Z,99950.34
2022-12-03T11:11:04.027Z,99953.56
2022-12-03T11:12:07.470Z,99944.69
2022-12-03T11:13:27.725Z,99945.78
2022-12-03T11:14:56.953Z,99947.06
2022-12-03T11:16:16.169Z,99946.97
2022-12-03T11:17:36.295Z,99951.25
2022-12-03T11:18:37.672Z,99946.97
2022-12-03T11:19:43.943Z,99947.78
2022-12-03T11:20:45.371Z,99946.44
2022-12-03T11:22:24.886Z,99945.69
2022-12-03T11:23:44.381Z,99937.78
2022-12-03T11:24:45.758Z,99935.84
2022-12-03T11:25:49.074Z,99938.25
2022-12-03T11:26:50.439Z,99938.13
2022-12-03T11:28:10.388Z,99935.34
2022-12-03T11:29:14.744Z,99935.94
2022-12-03T11:30:36.165Z,99930.81
2022-12-03T11:31:47.774Z,99924.91
2022-12-03T11:34:16.826Z,99939.44
2022-12-03T11:35:24.248Z,99933.06
2022-12-03T11:36:47.646Z,99934.81
2022-12-03T11:37:56.012Z,99934.00
2022-12-03T11:38:57.464Z,99932.19
2022-12-03T11:40:00.643Z,99934.06
2022-12-03T11:41:17.402Z,99939.41
2022-12-03T11:43:53.797Z,99938.34
2022-12-03T11:45:04.171Z,99934.00
2022-12-03T11:46:10.232Z,99944.28
2022-12-03T11:47:15.911Z,99942.31
2022-12-03T11:48:17.439Z,99946.59
2022-12-03T11:49:22.998Z,99939.59
2022-12-03T11:50:28.861Z,99936.16
2022-12-03T11:51:30.641Z,99936.03
2022-12-03T11:52:39.265Z,99919.53
2022-12-03T11:53:40.675Z,99920.25
2022-12-03T11:54:42.202Z,99918.50
2022-12-03T11:55:45.316Z,99920.25
2022-12-03T11:58:15.556Z,99907.47
2022-12-03T11:59:17.612Z,99913.69
2022-12-03T12:00:20.891Z,99912.13
2022-12-03T12:01:35.441Z,99903.63
2022-12-03T12:02:39.867Z,99898.50
2022-12-03T12:03:42.918Z,99905.31
2022-12-03T12:04:45.362Z,99898.34
2022-12-03T12:05:46.817Z,99900.03
2022-12-03T12:06:53.124Z,99899.31
2022-12-03T12:07:55.389Z,99902.19
2022-12-03T12:08:58.170Z,99909.38
2022-12-03T12:09:59.591Z,99906.75
2022-12-03T12:11:01.629Z,99904.97
2022-12-03T12:12:21.682Z,99899.72
2022-12-03T12:13:27.387Z,99901.34
2022-12-03T12:14:28.841Z,99895.50
2022-12-03T12:15:39.480Z,99899.78
2022-12-03T12:16:48.936Z,99895.31
2022-12-03T12:17:50.367Z,99900.22